createdAt,value
2022-10-19T00:04:07.843Z,49.20
2022-10-19T00:09:15.750Z,49.20
2022-10-19T00:14:22.609Z,49.30
2022-10-19T00:19:27.720Z,49.20
2022-10-19T00:24:32.369Z,49.30
2022-10-19T00:29:35.776Z,49.30
2022-10-19T00:34:39.169Z,49.20
2022-10-19T00:39:43.914Z,49.30
2022-10-19T00:45:03.932Z,49.40
2022-10-19T00:50:08.278Z,50.20
2022-10-19T00:55:13.652Z,49.30
2022-10-19T01:00:17.092Z,49.30
2022-10-19T01:05:20.628Z,49.30
2022-10-19T01:10:39.071Z,49.20
2022-10-19T01:15:50.091Z,49.50
2022-10-19T01:21:22.865Z,49.40
2022-10-19T01:26:58.604Z,49.60
2022-10-19T01:32:07.725Z,49.60
2022-10-19T01:37:18.922Z,49.40
2022-10-19T01:42:30.915Z,49.30
2022-10-19T01:47:40.090Z,49.30
2022-10-19T01:52:44.503Z,49.30
2022-10-19T01:57:50.173Z,49.20
2022-10-19T02:02:56.620Z,49.30
2022-10-19T02:08:03.502Z,49.20
2022-10-19T02:13:09.129Z,49.10
2022-10-19T02:18:18.204Z,49.20
2022-10-19T02:23:25.175Z,49.20
2022-10-19T02:28:29.493Z,49.20
2022-10-19T02:33:34.896Z,49.10
2022-10-19T02:38:38.520Z,49.10
2022-10-19T02:43:46.366Z,49.10
2022-10-19T02:48:52.477Z,49.10
2022-10-19T02:53:57.337Z,49.10
2022-10-19T02:59:01.893Z,49.10
2022-10-19T03:04:07.205Z,49.10
2022-10-19T03:09:10.951Z,49.10
2022-10-19T03:14:14.269Z,49.10
2022-10-19T03:19:19.044Z,49.00
2022-10-19T03:24:22.373Z,49.20
2022-10-19T03:29:25.799Z,49.30
2022-10-19T03:34:30.915Z,49.20
2022-10-19T03:39:34.200Z,49.30
2022-10-19T03:44:37.637Z,49.30
2022-10-19T03:49:43.674Z,49.30
2022-10-19T03:54:47.360Z,49.30
2022-10-19T03:59:50.638Z,49.20
2022-10-19T04:04:55.479Z,49.20
2022-10-19T04:09:58.924Z,49.50
2022-10-19T04:15:02.217Z,49.20
2022-10-19T04:20:09.158Z,49.30
2022-10-19T04:25:12.798Z,49.30
2022-10-19T04:30:16.448Z,49.30
2022-10-19T04:35:21.099Z,49.30
2022-10-19T04:40:24.519Z,49.30
2022-10-19T04:45:27.897Z,49.30
2022-10-19T04:50:32.725Z,49.30
2022-10-19T04:55:36.086Z,49.40
2022-10-19T05:00:40.612Z,49.30
2022-10-19T05:05:45.781Z,49.40
2022-10-19T05:10:49.105Z,49.40
2022-10-19T05:15:57.777Z,49.40
2022-10-19T05:21:07.841Z,49.50
2022-10-19T05:26:13.060Z,49.50
2022-10-19T05:31:18.069Z,49.40
2022-10-19T05:36:26.207Z,49.50
2022-10-19T05:41:29.629Z,49.60
2022-10-19T05:46:34.013Z,49.50
2022-10-19T05:51:39.870Z,49.60
2022-10-19T05:56:44.306Z,49.80
2022-10-19T06:01:49.333Z,49.80
2022-10-19T06:06:54.111Z,49.80
2022-10-19T06:11:57.455Z,49.90
2022-10-19T06:17:00.828Z,49.90
2022-10-19T06:22:05.468Z,49.90
2022-10-19T06:27:08.758Z,50.00
2022-10-19T06:32:12.207Z,50.00
2022-10-19T06:37:16.952Z,50.10
2022-10-19T06:42:21.085Z,50.10
2022-10-19T06:47:31.114Z,50.20
2022-10-19T06:52:36.918Z,50.20
2022-10-19T06:57:40.361Z,50.20
2022-10-19T07:02:44.225Z,50.20
2022-10-19T07:07:49.176Z,50.20
2022-10-19T07:12:52.541Z,50.30
2022-10-19T07:17:55.971Z,50.30
2022-10-19T07:23:00.687Z,50.20
2022-10-19T07:28:04.041Z,50.30
2022-10-19T07:33:08.189Z,50.70
2022-10-19T07:38:13.150Z,50.70
2022-10-19T07:43:18.819Z,51.00
2022-10-19T07:48:22.094Z,51.80
2022-10-19T07:53:26.804Z,53.30
2022-10-19T07:58:30.074Z,54.20
2022-10-19T08:08:58.704Z,53.90
2022-10-19T08:14:03.239Z,53.50
2022-10-19T08:19:08.420Z,53.00
2022-10-19T08:24:16.112Z,52.40
2022-10-19T08:29:21.455Z,51.50
2022-10-19T08:34:25.366Z,51.10
2022-10-19T08:39:30.503Z,50.70
2022-10-19T08:45:04.174Z,50.10
2022-10-19T08:50:19.198Z,48.90
2022-10-19T08:55:30.555Z,48.60
2022-10-19T09:00:42.714Z,48.40
2022-10-19T09:05:51.869Z,48.00
2022-10-19T09:10:57.425Z,47.90
2022-10-19T09:16:01.538Z,47.70
2022-10-19T09:21:11.296Z,47.00
2022-10-19T09:26:19.370Z,45.40
2022-10-19T09:31:31.736Z,45.00
2022-10-19T09:36:56.609Z,44.60
2022-10-19T09:42:09.280Z,44.50
2022-10-19T09:47:30.696Z,44.30
2022-10-19T09:52:36.498Z,44.30
2022-10-19T09:57:45.068Z,44.90
2022-10-19T10:02:52.278Z,45.00
2022-10-19T10:07:56.859Z,45.20
2022-10-19T10:13:02.094Z,45.40
2022-10-19T10:18:05.602Z,45.40
2022-10-19T10:23:24.106Z,45.20
2022-10-19T10:28:30.573Z,45.00
2022-10-19T10:33:45.404Z,45.10
2022-10-19T10:38:53.362Z,45.40
2022-10-19T10:44:04.530Z,45.10
2022-10-19T10:49:21.152Z,45.10
2022-10-19T10:54:26.180Z,44.20
2022-10-19T10:59:34.714Z,44.60
2022-10-19T11:04:42.341Z,44.40
2022-10-19T11:09:51.917Z,44.30
2022-10-19T11:15:05.379Z,44.70
2022-10-19T11:20:15.124Z,43.60
2022-10-19T11:25:27.631Z,44.10
2022-10-19T11:30:41.553Z,43.40
2022-10-19T11:35:53.164Z,43.40
2022-10-19T11:41:17.265Z,43.20
2022-10-19T11:46:28.623Z,43.00
2022-10-19T11:51:40.551Z,42.70
2022-10-19T11:57:03.307Z,42.60
2022-10-19T12:02:26.533Z,42.80
2022-10-19T12:07:52.588Z,41.90
2022-10-19T12:12:59.647Z,41.60
2022-10-19T12:18:11.932Z,42.20
2022-10-19T12:23:28.037Z,41.70
2022-10-19T12:28:34.158Z,41.30
2022-10-19T12:33:47.381Z,41.70
2022-10-19T12:39:02.018Z,41.10
2022-10-19T12:44:33.111Z,41.20
2022-10-19T12:49:45.260Z,41.00
2022-10-19T12:54:48.651Z,41.80
2022-10-19T13:00:02.034Z,42.00
2022-10-19T13:05:07.591Z,41.50
2022-10-19T13:10:22.026Z,41.80
2022-10-19T13:15:53.455Z,41.50
2022-10-19T13:20:58.731Z,41.60
2022-10-19T13:26:25.092Z,42.00
2022-10-19T13:31:30.494Z,41.60
2022-10-19T13:36:38.708Z,41.90
2022-10-19T13:41:53.936Z,41.80
2022-10-19T13:47:31.509Z,41.60
2022-10-19T13:53:00.171Z,41.60
2022-10-19T13:58:42.822Z,41.70
2022-10-19T14:04:01.370Z,41.70
2022-10-19T14:09:25.043Z,41.80
2022-10-19T14:14:29.866Z,41.80
2022-10-19T14:19:42.296Z,42.00
2022-10-19T14:24:47.388Z,42.00
2022-10-19T14:29:52.985Z,41.90
2022-10-19T14:35:00.695Z,41.90
2022-10-19T14:40:08.247Z,41.50
2022-10-19T14:45:15.508Z,41.40
2022-10-19T14:50:19.376Z,41.40
2022-10-19T14:55:26.747Z,41.60
2022-10-19T15:00:32.970Z,41.20
2022-10-19T15:05:40.719Z,41.30
2022-10-19T15:10:48.344Z,41.30
2022-10-19T15:15:54.026Z,41.20
2022-10-19T15:21:12.535Z,41.20
2022-10-19T15:26:28.261Z,40.90
2022-10-19T15:31:31.786Z,41.00
2022-10-19T15:36:35.249Z,41.40
2022-10-19T15:41:40.848Z,41.30
2022-10-19T15:47:19.414Z,40.90
2022-10-19T15:52:24.770Z,40.50
2022-10-19T15:57:33.688Z,40.70
2022-10-19T16:02:39.113Z,40.60
2022-10-19T16:07:43.824Z,40.80
2022-10-19T16:12:48.775Z,40.50
2022-10-19T16:17:54.760Z,40.50
2022-10-19T16:22:59.165Z,40.60
2022-10-19T16:28:04.319Z,40.60
2022-10-19T16:33:08.238Z,40.60
2022-10-19T16:38:11.864Z,40.70
2022-10-19T16:43:19.899Z,40.60
2022-10-19T16:48:24.096Z,40.50
2022-10-19T16:53:27.957Z,40.60
2022-10-19T16:58:33.396Z,40.60
2022-10-19T17:03:36.786Z,43.60
2022-10-19T17:09:14.745Z,45.20
2022-10-19T17:14:10.031Z,44.70
2022-10-19T17:19:14.889Z,42.80
2022-10-19T17:24:22.199Z,42.10
2022-10-19T17:29:32.821Z,41.20
2022-10-19T17:34:37.479Z,40.30
2022-10-19T17:39:42.218Z,40.10
2022-10-19T17:44:48.853Z,39.80
2022-10-19T17:49:54.987Z,39.50
2022-10-19T17:55:11.766Z,39.70
2022-10-19T18:00:20.959Z,39.80
2022-10-19T18:05:26.187Z,39.40
2022-10-19T18:10:30.758Z,39.80
2022-10-19T18:15:38.142Z,39.80
2022-10-19T18:20:43.078Z,39.80
2022-10-19T18:25:54.358Z,39.90
2022-10-19T18:31:07.144Z,40.00
2022-10-19T18:36:13.695Z,39.60
2022-10-19T18:41:19.517Z,40.00
2022-10-19T18:46:27.436Z,40.20
2022-10-19T18:51:33.883Z,39.90
2022-10-19T18:56:41.940Z,40.10
2022-10-19T19:01:50.011Z,40.10
2022-10-19T19:06:55.381Z,40.10
2022-10-19T19:12:02.669Z,40.30
2022-10-19T19:17:09.205Z,40.20
2022-10-19T19:22:14.489Z,40.20
2022-10-19T19:27:20.740Z,40.30
2022-10-19T19:32:30.754Z,40.20
2022-10-19T19:37:39.165Z,40.00
2022-10-19T19:42:44.214Z,40.00
2022-10-19T19:47:51.274Z,40.20
2022-10-19T19:52:57.294Z,40.10
2022-10-19T19:58:01.970Z,40.20
2022-10-19T20:03:10.572Z,40.30
2022-10-19T20:08:15.612Z,40.20
2022-10-19T20:13:20.348Z,40.30
2022-10-19T20:18:30.127Z,40.40
2022-10-19T20:23:36.345Z,40.30
2022-10-19T20:28:40.635Z,40.40
2022-10-19T20:33:47.685Z,40.40
2022-10-19T20:38:53.685Z,40.30
2022-10-19T20:43:59.693Z,40.40
2022-10-19T20:49:05.879Z,40.40
2022-10-19T20:54:12.364Z,40.40
2022-10-19T20:59:17.152Z,40.40
2022-10-19T21:04:22.716Z,40.50
2022-10-19T21:09:26.785Z,40.40
2022-10-19T21:14:31.663Z,40.50
2022-10-19T21:19:36.501Z,40.50
2022-10-19T21:24:39.913Z,40.50
2022-10-19T21:29:43.261Z,40.70
2022-10-19T21:34:47.974Z,40.60
2022-10-19T21:39:51.491Z,40.70
2022-10-19T21:45:01.367Z,40.70
2022-10-19T21:50:19.972Z,40.80
2022-10-19T21:55:24.864Z,40.80
2022-10-19T22:00:28.528Z,40.90
2022-10-19T22:05:33.366Z,40.90
2022-10-19T22:10:39.224Z,40.90
2022-10-19T22:15:43.156Z,41.00
2022-10-19T22:20:47.761Z,41.10
2022-10-19T22:25:51.078Z,41.20
2022-10-19T22:30:55.344Z,41.20
2022-10-19T22:36:01.816Z,41.30
2022-10-19T22:41:05.493Z,41.30
2022-10-19T22:46:09.087Z,41.30
2022-10-19T22:51:13.892Z,41.30
2022-10-19T22:56:17.240Z,41.30
2022-10-19T23:01:20.704Z,41.40
2022-10-19T23:06:25.532Z,41.50
2022-10-19T23:11:29.054Z,41.60
2022-10-19T23:16:32.465Z,41.50
2022-10-19T23:21:37.226Z,41.60
2022-10-19T23:26:43.989Z,41.60
2022-10-19T23:31:48.279Z,41.60
2022-10-19T23:36:53.050Z,41.70
2022-10-19T23:41:56.464Z,41.70
2022-10-19T23:46:59.914Z,41.80
2022-10-19T23:52:04.836Z,41.80
2022-10-19T23:57:08.265Z,41.80
